KDLF/DLF METAR and TAF weather

Enter ICAO airport designator
Station Type Date Time Source
KDLF METAR 2019/08/19 11:56 UTC NOAA

KDLF 191156Z AUTO 12009KT 10SM CLR 25/22 A2993 RMK AO2 SLP120 T02500215 10313 20250 52010 $


Station Type Date Time Source
KDLF Decoded METAR 2019/08/19 11:56 UTC NOAA

Station name not available
Aug 19, 2019 - 07:56 AM EDT / 2019.08.19 1156 UTC
Wind: from the ESE (120 degrees) at 10 MPH (9 KT):0
Visibility: 10 mile(s):0
Sky conditions: clear
Temperature: 77.0 F (25.0 C)
Dew Point: 70.7 F (21.5 C)
Relative Humidity: 80%
Pressure (altimeter): 29.93 in. Hg (1013 hPa)
Pressure tendency: 0.03 inches (1.0 hPa) higher than three hours ago
ob: KDLF 191156Z AUTO 12009KT 10SM CLR 25/22 A2993 RMK AO2 SLP120 T02500215 10313 20250 52010
cycle: 12

Station Type Date Time Source
KDLF TAF 2019/08/19 10:06 UTC NOAA

TAF KDLF 191000Z 1910/2016 12012KT 9999 SCT030 QNH2990INS
BECMG 1915/1916 12010G15KT 9999 FEW040 SCT250 QNH2982INS
BECMG 2001/2002 13012KT 9999 SCT250 QNH3002INS
BECMG 2008/2009 13012KT 9999 BKN020 QNH2989INS TX40/1922Z TN25/1912Z

Example: see airport list